Terminal Aerodrome Forecast
Issued by NWS

Home | Current Version | Previous Version | Text Only | Print | Product List | Glossary On
Versions: 1 2 3 4 5 6 7 8 9 10 11 12 13 14 15 16 17 18
000
FTUS41 KPBZ 071733
TAFHLG
TAF
KHLG 071733Z 0718/0818 20013G22KT P6SM BKN040
     FM080000 23008KT 4SM TSRA OVC030CB
      TEMPO 0801/0803 2SM TSRA OVC020CB
     FM080500 24006KT 3SM SHRA BR OVC006
     FM081500 30004KT 6SM BR OVC012=

USA.gov is the U.S. government's official web portal to all federal, state and local government web resources and services.